Time;durP1;ratioP1;P1;durP2;ratioP2;P2;SDS_P1;SDS_P2;PMS_P1;PMS_P2;Temp;Humidity;BMP_temperature;BMP_pressure;BME280_temperature;BME280_humidity;BME280_pressure;Samples;Min_cycle;Max_cycle;Signal;HPM_P1;HPM_P2
2022/01/01 00:02:03;;;;;;;25.40;16.25;;;;;;;11.48;100.00;102280.53;5010386;28;20030;-62
2022/01/01 00:04:29;;;;;;;24.52;16.02;;;;;;;11.48;100.00;102283.13;5010966;28;20034;-62
2022/01/01 00:06:55;;;;;;;29.45;16.67;;;;;;;11.49;100.00;102281.41;5010778;28;20378;-62
2022/01/01 00:09:20;;;;;;;32.90;18.80;;;;;;;11.48;100.00;102285.72;5010677;28;20109;-62
2022/01/01 00:11:45;;;;;;;30.38;18.95;;;;;;;11.49;100.00;102281.41;5010686;28;20088;-62
2022/01/01 00:14:11;;;;;;;33.25;20.10;;;;;;;11.49;100.00;102297.91;5010620;28;20108;-63
2022/01/01 00:16:36;;;;;;;31.38;21.48;;;;;;;11.50;100.00;102299.66;5010509;28;20441;-62
2022/01/01 00:19:02;;;;;;;35.55;21.58;;;;;;;11.50;100.00;102293.56;5010899;28;20494;-62
2022/01/01 00:21:28;;;;;;;37.33;23.08;;;;;;;11.50;100.00;102302.25;5010090;28;20477;-62
2022/01/01 00:23:54;;;;;;;34.30;22.63;;;;;;;11.51;100.00;102300.56;5004018;28;20046;-63
2022/01/01 00:26:19;;;;;;;34.08;21.77;;;;;;;11.53;100.00;102306.72;5010224;28;20033;-62
2022/01/01 00:28:45;;;;;;;33.78;21.75;;;;;;;11.52;100.00;102305.84;5010305;28;20552;-63
2022/01/01 00:31:10;;;;;;;36.80;21.30;;;;;;;11.52;100.00;102308.44;5010283;28;20065;-62
2022/01/01 00:33:36;;;;;;;36.80;21.35;;;;;;;11.52;100.00;102303.25;5010104;28;20486;-62
2022/01/01 00:36:01;;;;;;;36.03;21.27;;;;;;;11.51;100.00;102304.03;5010300;28;20026;-63
2022/01/01 00:38:27;;;;;;;35.28;22.23;;;;;;;11.53;100.00;102298.94;5010330;28;20368;-63
2022/01/01 00:40:52;;;;;;;33.53;19.35;;;;;;;11.53;100.00;102294.63;5009898;28;20044;-63
2022/01/01 00:43:17;;;;;;;32.10;17.75;;;;;;;11.52;100.00;102303.25;5010283;28;20026;-63
2022/01/01 00:45:43;;;;;;;30.42;18.52;;;;;;;11.53;100.00;102298.94;5010657;28;20084;-63
2022/01/01 00:48:08;;;;;;;29.90;16.85;;;;;;;11.52;100.00;102295.44;5010192;28;20029;-63
2022/01/01 00:50:33;;;;;;;31.95;16.70;;;;;;;11.52;100.00;102298.03;5009868;28;20064;-62
2022/01/01 00:52:59;;;;;;;31.13;17.88;;;;;;;11.50;100.00;102294.47;5009947;28;20687;-63
2022/01/01 00:55:24;;;;;;;31.42;16.35;;;;;;;11.49;100.00;102284.91;5010118;28;20505;-63
2022/01/01 00:57:49;;;;;;;32.13;16.25;;;;;;;11.48;100.00;102285.72;5009689;28;20044;-63
2022/01/01 01:00:15;;;;;;;30.10;15.27;;;;;;;11.46;100.00;102297.72;5009966;28;20100;-62
2022/01/01 01:02:40;;;;;;;34.55;14.90;;;;;;;11.46;100.00;102305.50;5010029;28;20379;-62
2022/01/01 01:05:06;;;;;;;27.33;14.82;;;;;;;11.46;100.00;102308.09;5010263;28;20296;-63
2022/01/01 01:07:31;;;;;;;30.50;14.48;;;;;;;11.47;100.00;102306.41;5010074;28;20462;-63
2022/01/01 01:09:57;;;;;;;29.67;14.13;;;;;;;11.46;100.00;102302.03;5008790;28;20466;-63
2022/01/01 01:12:26;;;;;;;25.35;14.38;;;;;;;11.45;100.00;102297.63;5009598;28;20048;-63
2022/01/01 01:14:52;;;;;;;28.52;15.60;;;;;;;11.45;100.00;102300.22;5008968;28;20498;-63
2022/01/01 01:17:18;;;;;;;25.80;13.70;;;;;;;11.43;100.00;102299.25;5009492;28;20053;-63
2022/01/01 01:19:43;;;;;;;27.80;12.93;;;;;;;11.42;100.00;102300.97;5003460;28;20481;-63
2022/01/01 01:22:09;;;;;;;30.25;13.38;;;;;;;11.42;100.00;102311.38;5009668;28;20494;-63
2022/01/01 01:24:34;;;;;;;30.05;14.48;;;;;;;11.41;100.00;102309.56;5009310;28;20030;-63
2022/01/01 01:27:02;;;;;;;29.25;13.80;;;;;;;11.42;100.00;102303.56;5008952;28;20109;-62
2022/01/01 01:29:33;;;;;;;25.85;13.68;;;;;;;11.43;100.00;102314.84;5009349;28;20389;-62
2022/01/01 01:31:58;;;;;;;24.55;13.80;;;;;;;11.42;100.00;102316.56;5009742;28;20065;-62
2022/01/01 01:34:23;;;;;;;28.52;14.20;;;;;;;11.42;100.00;102308.78;5005244;28;20018;-62
2022/01/01 01:36:49;;;;;;;27.35;14.02;;;;;;;11.41;100.00;102305.28;5006100;28;20517;-62
2022/01/01 01:39:14;;;;;;;27.70;13.40;;;;;;;11.41;100.00;102314.75;5009334;28;20088;-63
2022/01/01 01:45:22;;;;;;;31.00;12.85;;;;;;;11.41;100.00;102315.66;5009243;28;20044;-63
2022/01/01 01:47:49;;;;;;;29.30;13.38;;;;;;;11.40;100.00;102313.84;5008074;28;20114;-63
2022/01/01 01:50:16;;;;;;;30.55;13.00;;;;;;;11.41;100.00;102319.94;5012587;28;20025;-62
2022/01/01 01:52:47;;;;;;;23.35;11.35;;;;;;;11.40;100.00;102328.56;5013269;28;20088;-61
2022/01/01 01:55:12;;;;;;;32.00;14.13;;;;;;;11.40;100.00;102338.94;5013016;28;20417;-63
2022/01/01 02:01:20;;;;;;;23.05;11.52;;;;;;;11.38;100.00;102345.75;5013222;28;20104;-63
2022/01/01 02:03:47;;;;;;;24.95;13.30;;;;;;;11.37;100.00;102349.16;5013297;28;20471;-63
2022/01/01 02:06:12;;;;;;;25.60;11.73;;;;;;;11.36;100.00;102335.28;5013372;28;20029;-62
2022/01/01 02:08:37;;;;;;;24.75;12.65;;;;;;;11.38;100.00;102332.78;5013164;28;20084;-62
2022/01/01 02:11:03;;;;;;;28.38;12.73;;;;;;;11.38;100.00;102327.59;5012852;28;20036;-62
2022/01/01 02:13:34;;;;;;;24.92;12.50;;;;;;;11.38;100.00;102322.38;5012965;28;20061;-62
2022/01/01 02:16:38;;;;;;;26.77;12.75;;;;;;;11.38;100.00;102327.59;5013168;28;20103;-63
2022/01/01 02:18:56;;;;;;;22.38;12.23;;;;;;;11.37;100.00;102325.81;5013160;28;20037;-63
2022/01/01 02:21:22;;;;;;;23.98;12.80;;;;;;;11.36;100.00;102329.19;5012612;28;20037;-63
2022/01/01 02:23:56;;;;;;;26.25;11.95;;;;;;;11.37;100.00;102324.09;5012622;28;20540;-63
2022/01/01 02:26:26;;;;;;;28.95;13.38;;;;;;;11.38;100.00;102319.78;5012450;28;20108;-62
2022/01/01 02:28:51;;;;;;;22.48;12.45;;;;;;;11.39;100.00;102316.38;5012819;28;20038;-61
2022/01/01 02:31:17;;;;;;;30.77;13.75;;;;;;;11.39;100.00;102313.78;5012261;28;20104;-63
2022/01/01 02:33:43;;;;;;;24.65;13.82;;;;;;;11.38;100.00;102312.00;5012551;28;20097;-63
2022/01/01 02:36:09;;;;;;;26.50;14.20;;;;;;;11.38;100.00;102317.19;5012767;28;20026;-62
2022/01/01 02:38:37;;;;;;;24.75;14.88;;;;;;;11.39;100.00;102313.78;5006415;28;20484;-62
2022/01/01 02:41:02;;;;;;;24.83;14.63;;;;;;;11.40;100.00;102323.38;5012193;28;20612;-61
2022/01/01 02:43:28;;;;;;;26.25;15.10;;;;;;;11.40;100.00;102318.19;5011948;28;20033;-62
2022/01/01 02:45:54;;;;;;;26.50;14.63;;;;;;;11.40;100.00;102315.59;5012067;28;20033;-62
2022/01/01 02:48:20;;;;;;;23.40;14.52;;;;;;;11.40;100.00;102320.78;5012425;28;20113;-62
2022/01/01 02:50:46;;;;;;;25.05;13.93;;;;;;;11.40;100.00;102324.25;5012588;28;20097;-62
2022/01/01 02:53:15;;;;;;;31.20;15.10;;;;;;;11.43;100.00;102310.53;5012502;28;20377;-62
2022/01/01 02:55:43;;;;;;;25.85;14.43;;;;;;;11.43;100.00;102312.22;5012125;28;20108;-62
2022/01/01 02:58:12;;;;;;;21.60;14.40;;;;;;;11.43;100.00;102307.03;5012041;28;20032;-62
2022/01/01 03:00:39;;;;;;;25.35;14.48;;;;;;;11.43;100.00;102301.84;5012228;28;20421;-61
2022/01/01 03:03:04;;;;;;;21.25;13.95;;;;;;;11.41;100.00;102294.88;5011712;28;20034;-61
2022/01/01 03:05:31;;;;;;;25.20;14.80;;;;;;;11.41;100.00;102289.69;5012052;28;20025;-63
2022/01/01 03:07:57;;;;;;;25.63;13.82;;;;;;;11.41;100.00;102294.00;5012011;28;20101;-62
2022/01/01 03:10:22;;;;;;;26.63;15.20;;;;;;;11.41;100.00;102294.88;5011818;28;20157;-62
2022/01/01 03:12:48;;;;;;;22.00;13.98;;;;;;;11.41;100.00;102289.69;5011638;28;20045;-62
2022/01/01 03:15:14;;;;;;;23.77;14.02;;;;;;;11.42;100.00;102293.19;5011817;28;20077;-62
2022/01/01 03:17:39;;;;;;;22.20;14.05;;;;;;;11.41;100.00;102294.00;5012089;28;20510;-62
2022/01/01 03:20:06;;;;;;;21.95;13.10;;;;;;;11.41;100.00;102294.88;5012025;28;20037;-63
2022/01/01 03:22:31;;;;;;;22.88;13.85;;;;;;;11.41;100.00;102294.88;5011378;28;20025;-62
2022/01/01 03:24:56;;;;;;;20.00;12.02;;;;;;;11.42;100.00;102300.97;5011643;28;20037;-62
2022/01/01 03:27:22;;;;;;;22.05;11.35;;;;;;;11.43;100.00;102294.97;5011615;28;20172;-62
2022/01/01 03:29:47;;;;;;;23.10;12.23;;;;;;;11.44;100.00;102288.94;5011850;28;20084;-62
2022/01/01 03:32:13;;;;;;;22.38;12.77;;;;;;;11.47;100.00;102289.13;5011606;28;20032;-62
2022/01/01 03:34:38;;;;;;;19.35;11.57;;;;;;;11.49;100.00;102277.13;5011494;28;20473;-62
2022/01/01 03:37:04;;;;;;;21.92;11.50;;;;;;;11.49;100.00;102292.72;5011268;28;20033;-62
2022/01/01 03:39:29;;;;;;;19.75;10.93;;;;;;;11.47;100.00;102278.75;5011460;28;20030;-62
2022/01/01 03:41:55;;;;;;;18.58;10.27;;;;;;;11.47;100.00;102277.84;5011024;28;20180;-62
2022/01/01 03:44:20;;;;;;;19.60;10.50;;;;;;;11.47;100.00;102283.94;5037499;28;20038;-62
2022/01/01 03:46:46;;;;;;;24.50;10.90;;;;;;;11.49;100.00;102289.22;5011278;28;20395;-62
2022/01/01 03:49:11;;;;;;;18.95;10.32;;;;;;;11.49;100.00;102286.59;5010974;28;20089;-62
2022/01/01 03:51:37;;;;;;;19.45;10.00;;;;;;;11.49;100.00;102276.22;5011003;28;20473;-62
2022/01/01 03:54:02;;;;;;;20.17;9.07;;;;;;;11.47;100.00;102270.97;5011195;28;20440;-62
2022/01/01 03:56:28;;;;;;;17.40;10.35;;;;;;;11.46;100.00;102279.53;5010870;28;20560;-62
2022/01/01 03:58:53;;;;;;;18.00;9.52;;;;;;;11.45;100.00;102272.59;5011102;28;20059;-62
2022/01/01 04:01:19;;;;;;;15.40;9.93;;;;;;;11.44;100.00;102278.56;5010750;28;20026;-62
2022/01/01 04:03:44;;;;;;;20.27;9.98;;;;;;;11.44;100.00;102268.19;5010870;28;20092;-62
2022/01/01 04:06:09;;;;;;;17.90;9.48;;;;;;;11.44;100.00;102270.78;5011300;28;20084;-62
2022/01/01 04:08:35;;;;;;;12.68;8.85;;;;;;;11.44;100.00;102281.16;5010884;28;20022;-61
2022/01/01 04:11:01;;;;;;;18.08;9.93;;;;;;;11.45;100.00;102287.25;5010776;28;20064;-63
2022/01/01 04:13:26;;;;;;;19.08;9.45;;;;;;;11.45;100.00;102289.84;5010524;28;20105;-63
2022/01/01 04:15:51;;;;;;;17.75;8.68;;;;;;;11.45;100.00;102280.38;5010592;28;20038;-62
2022/01/01 04:18:26;;;;;;;19.23;9.23;;;;;;;11.45;100.00;102282.97;5010802;28;20478;-62
2022/01/01 04:20:52;;;;;;;17.15;9.02;;;;;;;11.44;100.00;102278.56;5010511;28;20025;-62
2022/01/01 04:23:17;;;;;;;13.93;8.45;;;;;;;11.44;100.00;102275.97;5010561;28;20084;-62
2022/01/01 04:25:47;;;;;;;17.20;9.25;;;;;;;11.46;100.00;102276.94;5010506;28;20030;-62
2022/01/01 04:28:13;;;;;;;15.65;8.45;;;;;;;11.46;100.00;102274.34;5010169;28;20072;-62
2022/01/01 04:30:39;;;;;;;17.17;8.38;;;;;;;11.46;100.00;102274.34;5009808;28;20049;-62
2022/01/01 04:33:04;;;;;;;19.55;8.88;;;;;;;11.43;100.00;102279.41;5010318;28;20029;-63
2022/01/01 04:35:29;;;;;;;14.82;8.13;;;;;;;11.44;100.00;102275.09;5003773;28;20541;-62
2022/01/01 04:37:55;;;;;;;16.23;8.52;;;;;;;11.43;100.00;102282.00;5010410;28;20425;-63
2022/01/01 04:40:20;;;;;;;16.23;8.10;;;;;;;11.44;100.00;102278.56;5010443;28;20160;-63
2022/01/01 04:42:46;;;;;;;17.15;8.60;;;;;;;11.44;100.00;102281.16;5010227;28;20026;-63
2022/01/01 04:45:11;;;;;;;17.00;8.32;;;;;;;11.46;100.00;102289.06;5010218;28;20180;-62
2022/01/01 04:47:37;;;;;;;13.38;7.53;;;;;;;11.44;100.00;102291.53;5010093;28;20026;-62
2022/01/01 04:50:04;;;;;;;17.10;8.35;;;;;;;11.44;100.00;102288.09;5009898;28;20065;-62
2022/01/01 04:52:30;;;;;;;15.88;7.53;;;;;;;11.45;100.00;102290.75;5009774;28;20026;-62
2022/01/01 04:54:56;;;;;;;14.75;7.93;;;;;;;11.47;100.00;102296.03;5010201;28;20033;-62
2022/01/01 04:57:26;;;;;;;14.07;7.68;;;;;;;11.49;100.00;102303.09;5009733;28;20434;-62
2022/01/01 04:59:51;;;;;;;17.50;7.68;;;;;;;11.49;100.00;102294.41;5003585;28;20030;-63
2022/01/01 05:02:16;;;;;;;20.80;8.95;;;;;;;11.49;100.00;102297.91;5009934;28;20512;-63
2022/01/01 05:04:42;;;;;;;14.55;7.63;;;;;;;11.49;100.00;102295.31;5010432;28;20026;-62
2022/01/01 05:07:07;;;;;;;14.77;7.20;;;;;;;11.49;100.00;102292.72;5010112;28;20107;-63
2022/01/01 05:09:33;;;;;;;13.13;7.43;;;;;;;11.47;100.00;102294.31;5009921;28;20032;-62
2022/01/01 05:11:58;;;;;;;13.55;7.63;;;;;;;11.50;100.00;102298.75;5009715;28;20257;-62
2022/01/01 05:14:24;;;;;;;14.38;7.47;;;;;;;11.50;100.00;102304.84;5009742;28;20046;-62
2022/01/01 05:16:51;;;;;;;14.55;7.38;;;;;;;11.49;100.00;102307.38;5009747;28;20091;-62
2022/01/01 05:19:17;;;;;;;15.45;7.78;;;;;;;11.47;100.00;102309.91;5009583;28;20101;-63
2022/01/01 05:21:42;;;;;;;17.48;8.65;;;;;;;11.46;100.00;102308.09;5009320;28;20026;-62
2022/01/01 05:24:08;;;;;;;15.10;8.02;;;;;;;11.45;100.00;102311.53;5008626;28;20080;-63
2022/01/01 05:26:33;;;;;;;16.67;7.47;;;;;;;11.44;100.00;102304.53;5009780;28;20022;-62
2022/01/01 05:29:00;;;;;;;16.98;8.65;;;;;;;11.44;100.00;102312.31;5010250;28;20018;-63
2022/01/01 05:31:25;;;;;;;15.18;7.60;;;;;;;11.43;100.00;102305.34;5009402;28;20209;-63
2022/01/01 05:33:52;;;;;;;12.52;7.50;;;;;;;11.42;100.00;102300.97;5008466;28;20018;-63
2022/01/01 05:36:18;;;;;;;14.05;7.65;;;;;;;11.41;100.00;102306.97;5009670;28;20296;-63
2022/01/01 05:38:45;;;;;;;15.80;7.72;;;;;;;11.41;100.00;102312.16;5009470;28;20112;-63
2022/01/01 05:41:11;;;;;;;13.82;7.10;;;;;;;11.40;100.00;102308.66;5009299;28;20080;-63
2022/01/01 05:43:37;;;;;;;17.20;7.22;;;;;;;11.37;100.00;102303.31;5009307;28;20053;-63
2022/01/01 05:46:02;;;;;;;13.43;7.25;;;;;;;11.38;100.00;102306.81;5009437;28;20026;-63
2022/01/01 05:48:28;;;;;;;15.25;7.68;;;;;;;11.36;100.00;102308.44;5009928;28;20373;-62
2022/01/01 05:50:53;;;;;;;14.65;7.40;;;;;;;11.36;100.00;102318.81;5008952;28;20022;-63
2022/01/01 05:53:19;;;;;;;15.68;7.93;;;;;;;11.36;100.00;102311.03;5009582;28;20105;-63
2022/01/01 05:55:46;;;;;;;15.13;7.70;;;;;;;11.36;100.00;102311.94;5009209;28;20516;-62
2022/01/01 05:58:11;;;;;;;13.32;6.97;;;;;;;11.36;100.00;102305.84;5009457;28;20048;-63
2022/01/01 06:00:37;;;;;;;14.23;7.18;;;;;;;11.35;100.00;102309.25;5009131;28;20097;-62
2022/01/01 06:03:03;;;;;;;15.38;7.20;;;;;;;11.36;100.00;102303.25;5009290;28;20490;-63
2022/01/01 06:05:30;;;;;;;13.88;7.25;;;;;;;11.35;100.00;102301.47;5009200;28;20032;-62
2022/01/01 06:07:56;;;;;;;14.57;7.40;;;;;;;11.36;100.00;102292.88;5009386;28;20026;-63
2022/01/01 06:10:22;;;;;;;12.98;6.80;;;;;;;11.36;100.00;102301.56;5009387;28;20586;-62
2022/01/01 06:12:47;;;;;;;19.77;7.25;;;;;;;11.36;100.00;102291.16;5008994;28;20031;-63
2022/01/01 06:15:13;;;;;;;13.25;7.03;;;;;;;11.35;100.00;102280.72;5009266;28;20045;-62
2022/01/01 06:17:38;;;;;;;14.40;6.38;;;;;;;11.35;100.00;102289.38;5008980;28;20068;-63
2022/01/01 06:20:04;;;;;;;13.80;7.43;;;;;;;11.34;100.00;102269.44;5008906;28;20038;-62
2022/01/01 06:22:29;;;;;;;12.85;6.25;;;;;;;11.35;100.00;102283.31;5008839;28;20434;-63
2022/01/01 06:24:55;;;;;;;13.60;5.97;;;;;;;11.33;100.00;102274.53;5009199;28;20418;-63
2022/01/01 06:27:20;;;;;;;13.40;6.45;;;;;;;11.35;100.00;102280.72;5007621;28;20032;-63
2022/01/01 06:29:45;;;;;;;12.75;5.30;;;;;;;11.33;100.00;102288.44;5009070;28;20026;-63
2022/01/01 06:32:11;;;;;;;11.35;5.72;;;;;;;11.28;100.00;102293.34;5009023;28;20088;-63
2022/01/01 06:34:37;;;;;;;10.68;5.43;;;;;;;11.28;100.00;102288.16;5009404;28;20041;-63
2022/01/01 06:37:02;;;;;;;14.50;6.07;;;;;;;11.26;100.00;102286.31;5012696;28;20032;-63
2022/01/01 06:39:28;;;;;;;14.15;5.65;;;;;;;11.23;100.00;102293.91;5012448;28;20121;-63
2022/01/01 06:41:53;;;;;;;13.15;5.28;;;;;;;11.19;100.00;102292.88;5005927;28;20030;-63
2022/01/01 06:44:18;;;;;;;14.07;5.50;;;;;;;11.19;100.00;102297.19;5012368;28;20022;-63
2022/01/01 06:46:44;;;;;;;11.60;5.20;;;;;;;11.17;100.00;102303.16;5012692;28;20017;-63
2022/01/01 06:49:09;;;;;;;14.18;6.05;;;;;;;11.14;100.00;102304.69;5011778;28;20709;-62
2022/01/01 06:51:36;;;;;;;10.23;4.63;;;;;;;11.13;100.00;102309.03;5012236;28;20082;-63
2022/01/01 06:54:02;;;;;;;10.40;5.10;;;;;;;11.11;100.00;102289.88;5005811;28;20026;-63
2022/01/01 06:56:28;;;;;;;10.02;4.90;;;;;;;11.09;100.00;102303.56;5007532;28;20022;-63
2022/01/01 06:58:53;;;;;;;13.25;5.90;;;;;;;11.05;100.00;102299.91;5011840;28;20707;-63
2022/01/01 07:01:18;;;;;;;11.35;5.05;;;;;;;11.01;100.00;102298.00;5012039;28;20073;-63
2022/01/01 07:03:43;;;;;;;10.40;5.88;;;;;;;10.99;100.00;102308.25;5012155;28;20088;-63
2022/01/01 07:06:09;;;;;;;12.45;5.32;;;;;;;10.96;100.00;102310.69;5012130;28;20475;-63
2022/01/01 07:08:34;;;;;;;11.57;6.03;;;;;;;10.95;100.00;102314.13;5012540;28;20570;-62
2022/01/01 07:10:59;;;;;;;10.73;5.13;;;;;;;10.96;100.00;102315.88;5007535;28;20026;-63
2022/01/01 07:13:25;;;;;;;11.05;5.63;;;;;;;10.95;100.00;102315.81;5009296;28;20022;-63
2022/01/01 07:15:51;;;;;;;12.27;4.97;;;;;;;10.95;100.00;102321.91;5010601;28;20057;-63
2022/01/01 07:18:17;;;;;;;8.43;4.97;;;;;;;10.96;100.00;102331.44;5011584;28;20053;-63
2022/01/01 07:20:42;;;;;;;8.57;4.78;;;;;;;10.97;100.00;102329.75;5011412;28;20520;-64
2022/01/01 07:23:08;;;;;;;16.42;5.97;;;;;;;10.98;100.00;102327.25;5011274;28;20044;-63
2022/01/01 07:25:33;;;;;;;10.27;4.53;;;;;;;10.97;100.00;102333.25;5011459;28;20044;-63
2022/01/01 07:27:59;;;;;;;13.23;4.68;;;;;;;10.97;100.00;102317.69;5011506;28;20030;-63
2022/01/01 07:30:24;;;;;;;9.77;4.53;;;;;;;10.98;100.00;102321.16;5011533;28;20037;-63
2022/01/01 07:32:50;;;;;;;13.80;5.60;;;;;;;10.98;100.00;102329.84;5011196;28;20034;-64
2022/01/01 07:35:17;;;;;;;13.35;5.93;;;;;;;10.97;100.00;102338.44;5010740;28;20034;-64
2022/01/01 07:37:43;;;;;;;8.85;4.85;;;;;;;10.96;100.00;102336.63;5008841;28;20132;-63
2022/01/01 07:40:12;;;;;;;9.73;4.47;;;;;;;10.96;100.00;102339.22;5008764;28;20057;-63
2022/01/01 07:42:38;;;;;;;9.35;4.75;;;;;;;10.96;100.00;102336.63;5007645;28;20149;-64
2022/01/01 07:45:04;;;;;;;9.15;4.85;;;;;;;10.96;100.00;102344.41;5008250;28;20484;-64
2022/01/01 07:47:30;;;;;;;11.32;5.18;;;;;;;10.93;100.00;102342.56;5007070;28;20021;-63
2022/01/01 07:49:55;;;;;;;10.38;5.00;;;;;;;10.95;100.00;102349.53;5008342;28;20041;-64
2022/01/01 07:52:20;;;;;;;11.65;4.90;;;;;;;10.94;100.00;102351.22;5008155;28;20044;-62
2022/01/01 07:54:46;;;;;;;8.88;4.53;;;;;;;10.93;100.00;102352.03;5009128;28;20466;-62
2022/01/01 07:57:11;;;;;;;15.02;5.85;;;;;;;10.95;100.00;102352.13;5010419;28;20034;-62
2022/01/01 07:59:36;;;;;;;13.77;5.85;;;;;;;10.91;100.00;102343.28;5011016;28;20033;-62
2022/01/01 08:02:02;;;;;;;15.18;6.10;;;;;;;10.92;100.00;102345.03;5010548;28;20076;-62
2022/01/01 08:04:27;;;;;;;11.68;5.25;;;;;;;10.90;100.00;102347.56;5010578;28;20026;-62
2022/01/01 08:06:53;;;;;;;14.32;6.22;;;;;;;10.89;100.00;102345.78;5010958;28;20038;-62
2022/01/01 08:09:18;;;;;;;13.00;6.03;;;;;;;10.90;100.00;102355.34;5010579;28;20040;-62
2022/01/01 08:11:44;;;;;;;13.30;6.05;;;;;;;10.90;100.00;102352.75;5010056;28;20065;-62
2022/01/01 08:14:10;;;;;;;12.52;6.22;;;;;;;10.88;100.00;102343.97;5009688;28;20060;-62
2022/01/01 08:16:54;;;;;;;14.27;5.72;;;;;;;10.89;100.00;102350.97;5009884;28;20421;-62
2022/01/01 08:19:19;;;;;;;12.50;6.40;;;;;;;10.89;100.00;102350.06;5010131;28;20227;-61
2022/01/01 08:21:45;;;;;;;10.98;6.00;;;;;;;10.89;100.00;102360.44;5010021;28;20077;-62
2022/01/01 08:24:10;;;;;;;11.68;6.05;;;;;;;10.90;100.00;102360.53;5010346;28;20471;-62
2022/01/01 08:33:19;;;;;;;9.68;5.75;;;;;;;10.91;100.00;102359.75;5010034;28;20032;-62
2022/01/01 08:35:44;;;;;;;12.18;5.93;;;;;;;10.90;100.00;102359.66;4997930;28;20034;-63
2022/01/01 08:38:10;;;;;;;11.02;5.15;;;;;;;10.91;100.00;102361.44;5010313;28;20116;-62
2022/01/01 08:40:35;;;;;;;16.98;5.68;;;;;;;10.92;100.00;102358.91;5010409;28;20076;-62
2022/01/01 08:43:01;;;;;;;11.13;5.22;;;;;;;10.92;100.00;102358.91;5009820;28;20125;-62
2022/01/01 08:45:26;;;;;;;14.20;6.18;;;;;;;10.92;100.00;102355.41;5009210;28;20029;-63
2022/01/01 08:47:52;;;;;;;11.00;5.03;;;;;;;10.92;100.00;102350.22;5010043;28;20536;-62
2022/01/01 08:50:18;;;;;;;12.60;5.63;;;;;;;10.91;100.00;102351.97;5009826;28;20025;-62
2022/01/01 08:52:44;;;;;;;9.95;5.43;;;;;;;10.95;100.00;102357.31;5010186;28;20056;-62
2022/01/01 08:55:09;;;;;;;9.40;4.82;;;;;;;10.94;100.00;102366.78;5009798;28;20076;-63
2022/01/01 09:01:13;;;;;;;10.90;4.88;;;;;;;10.90;100.00;102363.13;5008098;28;20425;-62
2022/01/01 09:03:38;;;;;;;14.20;5.90;;;;;;;10.89;100.00;102350.06;5008873;28;20022;-61
2022/01/01 09:06:05;;;;;;;11.60;5.47;;;;;;;10.88;100.00;102350.91;5009412;28;20032;-62
2022/01/01 09:08:39;;;;;;;10.20;5.20;;;;;;;10.88;100.00;102348.31;5008497;28;20034;-61
2022/01/01 09:11:05;;;;;;;11.98;5.38;;;;;;;10.89;100.00;102350.06;5009294;28;20044;-62
2022/01/01 09:13:31;;;;;;;11.30;5.35;;;;;;;10.88;100.00;102345.72;5022877;28;20033;-62
2022/01/01 09:15:56;;;;;;;10.25;5.65;;;;;;;10.88;100.00;102337.94;5009500;28;20071;-62
2022/01/01 09:18:22;;;;;;;9.93;5.38;;;;;;;10.89;100.00;102344.88;5009540;28;20049;-63
2022/01/01 09:20:48;;;;;;;10.20;5.93;;;;;;;10.89;100.00;102345.78;5004080;28;20034;-62
2022/01/01 09:23:14;;;;;;;13.25;5.43;;;;;;;10.91;100.00;102340.69;5008923;28;20026;-63
2022/01/01 09:25:39;;;;;;;11.93;6.15;;;;;;;10.93;100.00;102333.88;5008421;28;20034;-62
2022/01/01 09:28:05;;;;;;;11.60;5.70;;;;;;;10.94;100.00;102338.25;5009815;28;20018;-63
2022/01/01 09:30:30;;;;;;;11.52;6.18;;;;;;;10.92;100.00;102337.25;5004065;28;20037;-62
2022/01/01 09:32:56;;;;;;;12.75;5.75;;;;;;;10.93;100.00;102339.06;5009693;28;20212;-62
2022/01/01 09:35:21;;;;;;;8.98;5.50;;;;;;;10.95;100.00;102337.47;5009619;28;20382;-62
2022/01/01 09:37:46;;;;;;;7.53;5.82;;;;;;;10.96;100.00;102327.94;5009316;28;20382;-62
2022/01/01 09:40:12;;;;;;;8.57;5.63;;;;;;;10.99;100.00;102331.59;5009467;28;20022;-62
2022/01/01 09:42:39;;;;;;;11.38;5.88;;;;;;;10.96;100.00;102336.63;5009380;28;20110;-63
2022/01/01 09:45:09;;;;;;;10.95;5.75;;;;;;;11.01;100.00;102340.38;5009538;28;20053;-62
2022/01/01 09:47:35;;;;;;;8.90;5.28;;;;;;;11.01;100.00;102340.38;5004129;28;20374;-62
2022/01/01 09:50:04;;;;;;;9.88;5.32;;;;;;;11.01;100.00;102340.38;5009045;28;20030;-62
2022/01/01 09:52:29;;;;;;;7.35;4.97;;;;;;;11.02;100.00;102331.78;5009169;28;20532;-63
2022/01/01 09:54:54;;;;;;;9.73;5.00;;;;;;;11.01;100.00;102330.00;5009134;28;20030;-63
2022/01/01 09:57:20;;;;;;;10.38;5.30;;;;;;;11.03;100.00;102327.47;5008803;28;20056;-63
2022/01/01 09:59:46;;;;;;;8.00;5.45;;;;;;;11.03;100.00;102323.19;5009578;28;20101;-62
2022/01/01 10:02:12;;;;;;;12.05;6.45;;;;;;;11.03;100.00;102332.66;5009304;28;20025;-62
2022/01/01 10:04:42;;;;;;;8.13;5.18;;;;;;;11.02;100.00;102326.59;5009414;28;20447;-63
2022/01/01 10:07:08;;;;;;;8.27;5.32;;;;;;;11.04;100.00;102314.59;5008966;28;20018;-62
2022/01/01 10:09:35;;;;;;;9.90;6.10;;;;;;;11.04;100.00;102317.19;5009123;28;20044;-63
2022/01/01 10:12:01;;;;;;;11.18;6.40;;;;;;;11.04;100.00;102317.19;5013039;28;20026;-63
2022/01/01 10:14:40;;;;;;;9.85;6.30;;;;;;;11.06;100.00;102312.09;5012799;28;20522;-62
2022/01/01 10:17:21;;;;;;;10.90;6.22;;;;;;;11.08;100.00;102307.84;5012743;28;20041;-62
2022/01/01 10:19:49;;;;;;;12.55;5.88;;;;;;;11.10;100.00;102302.78;5013016;28;20041;-60
2022/01/01 10:22:22;;;;;;;8.93;6.13;;;;;;;11.11;100.00;102302.84;5012878;28;20022;-62
2022/01/01 10:27:52;;;;;;;9.40;5.72;;;;;;;11.10;100.00;102292.41;5012803;28;20116;-62
2022/01/01 10:30:24;;;;;;;9.70;5.80;;;;;;;11.10;100.00;102285.50;5013270;28;20018;-62
2022/01/01 10:33:03;;;;;;;10.50;6.28;;;;;;;11.13;100.00;102279.59;5012813;28;20022;-62
2022/01/01 10:35:34;;;;;;;9.70;5.68;;;;;;;11.16;100.00;102283.22;5012463;28;20044;-62
2022/01/01 10:37:59;;;;;;;11.90;6.55;;;;;;;11.18;100.00;102270.34;5012020;28;20032;-62
2022/01/01 10:40:26;;;;;;;8.20;5.47;;;;;;;11.18;100.00;102285.91;5011083;28;20033;-62
2022/01/01 10:42:52;;;;;;;9.50;5.68;;;;;;;11.19;100.00;102269.50;5012250;28;20060;-61
2022/01/01 10:45:35;;;;;;;12.20;6.00;;;;;;;11.26;100.00;102278.53;5011569;28;20423;-62
2022/01/01 10:50:49;;;;;;;20.92;5.88;;;;;;;11.32;100.00;102267.56;5012741;28;20275;-61
2022/01/01 10:53:19;;;;;;;12.50;6.03;;;;;;;11.35;100.00;102267.72;5012366;28;20534;-62
2022/01/01 10:55:46;;;;;;;6.88;5.35;;;;;;;11.37;100.00;102251.41;5012360;28;20060;-62
2022/01/01 10:58:23;;;;;;;8.43;5.53;;;;;;;11.43;100.00;102256.03;5012310;28;20482;-62
2022/01/01 11:00:50;;;;;;;9.30;5.22;;;;;;;11.46;100.00;102258.78;5012789;28;20491;-62
2022/01/01 11:03:17;;;;;;;8.23;5.45;;;;;;;11.47;100.00;102249.28;5011857;28;20113;-62
2022/01/01 11:05:45;;;;;;;6.70;4.57;;;;;;;11.49;100.00;102240.78;5012066;28;20038;-62
2022/01/01 11:08:11;;;;;;;8.02;4.88;;;;;;;11.50;100.00;102260.72;5012011;28;20482;-62
2022/01/01 11:10:38;;;;;;;8.50;5.20;;;;;;;11.51;100.00;102249.50;5012024;28;20037;-63
2022/01/01 11:13:05;;;;;;;9.23;5.25;;;;;;;11.49;100.00;102245.97;5011221;28;20364;-61
2022/01/01 11:15:30;;;;;;;8.85;5.25;;;;;;;11.49;100.00;102245.97;5011184;28;20034;-62
2022/01/01 11:17:57;;;;;;;8.80;4.75;;;;;;;11.49;100.00;102243.38;5010047;28;20030;-62
2022/01/01 11:20:24;;;;;;;8.45;5.18;;;;;;;11.50;100.00;102245.16;5011157;28;20181;-62
2022/01/01 11:22:50;;;;;;;8.82;4.47;;;;;;;11.55;100.00;102249.69;5009836;28;20356;-62
2022/01/01 11:25:17;;;;;;;8.52;4.53;;;;;;;11.63;100.00;102243.16;5011134;28;20030;-63
2022/01/01 11:27:43;;;;;;;7.75;4.72;;;;;;;11.70;100.00;102239.16;5006924;28;20482;-62